sensor_id;sensor_type;location;lat;lon;timestamp;P1;durP1;ratioP1;P2;durP2;ratioP2
29168;SDS011;16219;42.864;23.360;2023-06-26T00:01:39;1.73;;;1.63;;
29168;SDS011;16219;42.864;23.360;2023-06-26T00:04:06;2.08;;;1.77;;
29168;SDS011;16219;42.864;23.360;2023-06-26T00:06:33;2.22;;;2.03;;
29168;SDS011;16219;42.864;23.360;2023-06-26T00:09:01;2.45;;;2.25;;
29168;SDS011;16219;42.864;23.360;2023-06-26T00:11:28;1.50;;;1.40;;
29168;SDS011;16219;42.864;23.360;2023-06-26T00:13:59;1.95;;;1.73;;
29168;SDS011;16219;42.864;23.360;2023-06-26T00:16:26;2.25;;;2.08;;
29168;SDS011;16219;42.864;23.360;2023-06-26T00:18:54;1.67;;;1.45;;
29168;SDS011;16219;42.864;23.360;2023-06-26T00:21:21;2.65;;;2.15;;
29168;SDS011;16219;42.864;23.360;2023-06-26T00:23:47;8.20;;;2.47;;
29168;SDS011;16219;42.864;23.360;2023-06-26T00:26:14;1.67;;;1.58;;
29168;SDS011;16219;42.864;23.360;2023-06-26T00:28:42;3.95;;;1.52;;
29168;SDS011;16219;42.864;23.360;2023-06-26T00:31:10;2.85;;;1.98;;
29168;SDS011;16219;42.864;23.360;2023-06-26T00:33:37;4.20;;;2.00;;
29168;SDS011;16219;42.864;23.360;2023-06-26T00:36:04;1.70;;;1.60;;
29168;SDS011;16219;42.864;23.360;2023-06-26T00:38:31;2.22;;;1.83;;
29168;SDS011;16219;42.864;23.360;2023-06-26T00:40:58;4.97;;;1.88;;
29168;SDS011;16219;42.864;23.360;2023-06-26T00:43:25;6.80;;;2.72;;
29168;SDS011;16219;42.864;23.360;2023-06-26T00:45:52;2.35;;;2.15;;
29168;SDS011;16219;42.864;23.360;2023-06-26T00:48:20;2.33;;;1.73;;
29168;SDS011;16219;42.864;23.360;2023-06-26T00:50:50;5.05;;;2.40;;
29168;SDS011;16219;42.864;23.360;2023-06-26T00:53:17;1.15;;;1.15;;
29168;SDS011;16219;42.864;23.360;2023-06-26T00:55:44;2.63;;;2.17;;
29168;SDS011;16219;42.864;23.360;2023-06-26T00:58:12;3.45;;;2.65;;
29168;SDS011;16219;42.864;23.360;2023-06-26T01:00:39;5.15;;;1.95;;
29168;SDS011;16219;42.864;23.360;2023-06-26T01:03:06;6.00;;;2.10;;
29168;SDS011;16219;42.864;23.360;2023-06-26T01:05:35;4.10;;;2.80;;
29168;SDS011;16219;42.864;23.360;2023-06-26T01:08:03;6.80;;;1.52;;
29168;SDS011;16219;42.864;23.360;2023-06-26T01:10:31;4.20;;;2.63;;
29168;SDS011;16219;42.864;23.360;2023-06-26T01:12:59;2.78;;;1.77;;
29168;SDS011;16219;42.864;23.360;2023-06-26T01:15:26;4.45;;;2.17;;
29168;SDS011;16219;42.864;23.360;2023-06-26T01:17:53;2.40;;;1.80;;
29168;SDS011;16219;42.864;23.360;2023-06-26T01:20:29;1.83;;;1.73;;
29168;SDS011;16219;42.864;23.360;2023-06-26T01:23:01;1.65;;;1.55;;
29168;SDS011;16219;42.864;23.360;2023-06-26T01:25:36;1.92;;;1.58;;
29168;SDS011;16219;42.864;23.360;2023-06-26T01:28:10;2.20;;;1.88;;
29168;SDS011;16219;42.864;23.360;2023-06-26T01:30:41;1.83;;;1.73;;
29168;SDS011;16219;42.864;23.360;2023-06-26T01:33:10;1.70;;;1.60;;
29168;SDS011;16219;42.864;23.360;2023-06-26T01:35:38;2.13;;;1.98;;
29168;SDS011;16219;42.864;23.360;2023-06-26T01:38:12;3.72;;;1.95;;
29168;SDS011;16219;42.864;23.360;2023-06-26T01:40:41;1.65;;;1.55;;
29168;SDS011;16219;42.864;23.360;2023-06-26T01:43:14;2.87;;;2.37;;
29168;SDS011;16219;42.864;23.360;2023-06-26T01:45:59;15.68;;;2.65;;
29168;SDS011;16219;42.864;23.360;2023-06-26T01:48:30;0.93;;;0.93;;
29168;SDS011;16219;42.864;23.360;2023-06-26T01:51:01;1.67;;;1.58;;
29168;SDS011;16219;42.864;23.360;2023-06-26T01:53:31;2.00;;;1.60;;
29168;SDS011;16219;42.864;23.360;2023-06-26T01:56:04;2.70;;;1.92;;
29168;SDS011;16219;42.864;23.360;2023-06-26T01:58:37;3.27;;;1.93;;
29168;SDS011;16219;42.864;23.360;2023-06-26T02:01:07;1.80;;;1.67;;
29168;SDS011;16219;42.864;23.360;2023-06-26T02:03:35;19.15;;;2.85;;
29168;SDS011;16219;42.864;23.360;2023-06-26T02:06:02;1.95;;;1.77;;
29168;SDS011;16219;42.864;23.360;2023-06-26T02:08:29;2.70;;;1.77;;
29168;SDS011;16219;42.864;23.360;2023-06-26T02:10:56;7.93;;;1.60;;
29168;SDS011;16219;42.864;23.360;2023-06-26T02:13:23;4.20;;;2.53;;
29168;SDS011;16219;42.864;23.360;2023-06-26T02:15:51;2.38;;;1.92;;
29168;SDS011;16219;42.864;23.360;2023-06-26T02:18:18;6.30;;;1.38;;
29168;SDS011;16219;42.864;23.360;2023-06-26T02:20:46;3.40;;;2.00;;
29168;SDS011;16219;42.864;23.360;2023-06-26T02:23:13;2.85;;;2.20;;
29168;SDS011;16219;42.864;23.360;2023-06-26T02:25:40;3.20;;;2.47;;
29168;SDS011;16219;42.864;23.360;2023-06-26T02:28:08;2.30;;;2.08;;
29168;SDS011;16219;42.864;23.360;2023-06-26T02:30:36;4.32;;;1.80;;
29168;SDS011;16219;42.864;23.360;2023-06-26T02:33:04;5.13;;;3.00;;
29168;SDS011;16219;42.864;23.360;2023-06-26T02:35:31;4.57;;;2.25;;
29168;SDS011;16219;42.864;23.360;2023-06-26T02:37:59;2.13;;;1.75;;
29168;SDS011;16219;42.864;23.360;2023-06-26T02:40:26;4.22;;;3.15;;
29168;SDS011;16219;42.864;23.360;2023-06-26T02:42:53;3.47;;;2.78;;
29168;SDS011;16219;42.864;23.360;2023-06-26T02:45:20;2.63;;;2.42;;
29168;SDS011;16219;42.864;23.360;2023-06-26T02:47:48;1.70;;;1.58;;
29168;SDS011;16219;42.864;23.360;2023-06-26T02:50:16;4.22;;;1.75;;
29168;SDS011;16219;42.864;23.360;2023-06-26T02:53:02;2.60;;;1.83;;
29168;SDS011;16219;42.864;23.360;2023-06-26T02:55:29;11.95;;;2.22;;
29168;SDS011;16219;42.864;23.360;2023-06-26T02:57:56;10.38;;;2.83;;
29168;SDS011;16219;42.864;23.360;2023-06-26T03:00:24;2.58;;;1.90;;
29168;SDS011;16219;42.864;23.360;2023-06-26T03:02:53;2.88;;;1.52;;
29168;SDS011;16219;42.864;23.360;2023-06-26T03:05:23;2.60;;;2.05;;
29168;SDS011;16219;42.864;23.360;2023-06-26T03:07:51;6.80;;;2.38;;
29168;SDS011;16219;42.864;23.360;2023-06-26T03:10:18;2.75;;;1.83;;
29168;SDS011;16219;42.864;23.360;2023-06-26T03:12:45;2.42;;;1.67;;
29168;SDS011;16219;42.864;23.360;2023-06-26T03:15:12;3.67;;;1.85;;
29168;SDS011;16219;42.864;23.360;2023-06-26T03:17:40;1.58;;;1.48;;
29168;SDS011;16219;42.864;23.360;2023-06-26T03:20:11;1.40;;;1.30;;
29168;SDS011;16219;42.864;23.360;2023-06-26T03:22:59;2.28;;;1.83;;
29168;SDS011;16219;42.864;23.360;2023-06-26T03:25:27;3.92;;;2.15;;
29168;SDS011;16219;42.864;23.360;2023-06-26T03:28:07;4.25;;;2.28;;
29168;SDS011;16219;42.864;23.360;2023-06-26T03:30:35;1.77;;;1.67;;
29168;SDS011;16219;42.864;23.360;2023-06-26T03:33:02;1.48;;;1.38;;
29168;SDS011;16219;42.864;23.360;2023-06-26T03:35:30;3.88;;;2.90;;
29168;SDS011;16219;42.864;23.360;2023-06-26T03:38:00;2.05;;;1.25;;
29168;SDS011;16219;42.864;23.360;2023-06-26T03:40:28;1.88;;;1.77;;
29168;SDS011;16219;42.864;23.360;2023-06-26T03:42:55;5.68;;;1.48;;
29168;SDS011;16219;42.864;23.360;2023-06-26T03:45:23;4.35;;;1.52;;
29168;SDS011;16219;42.864;23.360;2023-06-26T03:47:50;3.65;;;3.10;;
29168;SDS011;16219;42.864;23.360;2023-06-26T03:50:18;3.55;;;1.77;;
29168;SDS011;16219;42.864;23.360;2023-06-26T03:52:45;2.60;;;1.80;;
29168;SDS011;16219;42.864;23.360;2023-06-26T03:55:14;2.63;;;2.42;;
29168;SDS011;16219;42.864;23.360;2023-06-26T03:57:44;4.93;;;2.08;;
29168;SDS011;16219;42.864;23.360;2023-06-26T04:00:13;5.88;;;3.03;;
29168;SDS011;16219;42.864;23.360;2023-06-26T04:02:40;2.10;;;1.90;;
29168;SDS011;16219;42.864;23.360;2023-06-26T04:05:09;3.55;;;1.90;;
29168;SDS011;16219;42.864;23.360;2023-06-26T04:07:37;3.58;;;1.83;;
29168;SDS011;16219;42.864;23.360;2023-06-26T04:10:06;3.20;;;2.30;;
29168;SDS011;16219;42.864;23.360;2023-06-26T04:12:35;2.38;;;2.03;;
29168;SDS011;16219;42.864;23.360;2023-06-26T04:15:03;1.70;;;1.60;;
29168;SDS011;16219;42.864;23.360;2023-06-26T04:17:31;1.95;;;1.35;;
29168;SDS011;16219;42.864;23.360;2023-06-26T04:19:58;2.08;;;1.52;;
29168;SDS011;16219;42.864;23.360;2023-06-26T04:22:25;1.98;;;1.75;;
29168;SDS011;16219;42.864;23.360;2023-06-26T04:24:52;4.18;;;2.90;;
29168;SDS011;16219;42.864;23.360;2023-06-26T04:27:20;4.25;;;2.72;;
29168;SDS011;16219;42.864;23.360;2023-06-26T04:29:48;1.98;;;1.88;;
29168;SDS011;16219;42.864;23.360;2023-06-26T04:32:16;2.05;;;1.90;;
29168;SDS011;16219;42.864;23.360;2023-06-26T04:34:43;2.13;;;1.73;;
29168;SDS011;16219;42.864;23.360;2023-06-26T04:37:10;6.75;;;2.10;;
29168;SDS011;16219;42.864;23.360;2023-06-26T04:39:41;4.63;;;2.53;;
29168;SDS011;16219;42.864;23.360;2023-06-26T04:42:09;4.28;;;2.10;;
29168;SDS011;16219;42.864;23.360;2023-06-26T04:44:37;2.03;;;1.42;;
29168;SDS011;16219;42.864;23.360;2023-06-26T04:47:07;5.25;;;2.22;;
29168;SDS011;16219;42.864;23.360;2023-06-26T04:49:34;2.13;;;1.80;;
29168;SDS011;16219;42.864;23.360;2023-06-26T04:52:02;2.95;;;2.55;;
29168;SDS011;16219;42.864;23.360;2023-06-26T04:54:29;3.05;;;1.85;;
29168;SDS011;16219;42.864;23.360;2023-06-26T04:56:56;4.07;;;2.20;;
29168;SDS011;16219;42.864;23.360;2023-06-26T04:59:25;1.42;;;1.38;;
29168;SDS011;16219;42.864;23.360;2023-06-26T05:01:52;6.57;;;2.72;;
29168;SDS011;16219;42.864;23.360;2023-06-26T05:04:20;2.83;;;1.90;;
29168;SDS011;16219;42.864;23.360;2023-06-26T05:06:48;6.00;;;3.33;;
29168;SDS011;16219;42.864;23.360;2023-06-26T05:09:15;4.45;;;2.58;;
29168;SDS011;16219;42.864;23.360;2023-06-26T05:11:42;1.58;;;1.48;;
29168;SDS011;16219;42.864;23.360;2023-06-26T05:14:09;4.47;;;3.05;;
29168;SDS011;16219;42.864;23.360;2023-06-26T05:16:36;1.52;;;1.42;;
29168;SDS011;16219;42.864;23.360;2023-06-26T05:19:03;3.38;;;1.92;;
29168;SDS011;16219;42.864;23.360;2023-06-26T05:21:32;5.25;;;2.22;;
29168;SDS011;16219;42.864;23.360;2023-06-26T05:24:00;6.10;;;2.25;;
29168;SDS011;16219;42.864;23.360;2023-06-26T05:26:29;2.78;;;2.13;;
29168;SDS011;16219;42.864;23.360;2023-06-26T05:28:56;4.53;;;2.83;;
29168;SDS011;16219;42.864;23.360;2023-06-26T05:31:24;2.65;;;2.20;;
29168;SDS011;16219;42.864;23.360;2023-06-26T05:33:52;1.80;;;1.70;;
29168;SDS011;16219;42.864;23.360;2023-06-26T05:36:22;2.40;;;2.20;;
29168;SDS011;16219;42.864;23.360;2023-06-26T05:38:53;2.67;;;2.33;;
29168;SDS011;16219;42.864;23.360;2023-06-26T05:41:22;2.38;;;2.08;;
29168;SDS011;16219;42.864;23.360;2023-06-26T05:43:49;1.55;;;1.45;;
29168;SDS011;16219;42.864;23.360;2023-06-26T05:46:19;2.60;;;2.40;;
29168;SDS011;16219;42.864;23.360;2023-06-26T05:48:46;2.80;;;2.40;;
29168;SDS011;16219;42.864;23.360;2023-06-26T05:51:14;6.45;;;3.10;;
29168;SDS011;16219;42.864;23.360;2023-06-26T05:53:41;3.88;;;2.50;;
29168;SDS011;16219;42.864;23.360;2023-06-26T05:56:11;3.03;;;2.28;;
29168;SDS011;16219;42.864;23.360;2023-06-26T05:58:39;5.07;;;2.47;;
29168;SDS011;16219;42.864;23.360;2023-06-26T06:01:07;3.22;;;2.53;;
29168;SDS011;16219;42.864;23.360;2023-06-26T06:03:34;1.77;;;1.67;;
29168;SDS011;16219;42.864;23.360;2023-06-26T06:06:01;3.92;;;2.45;;
29168;SDS011;16219;42.864;23.360;2023-06-26T06:08:28;6.70;;;2.85;;
29168;SDS011;16219;42.864;23.360;2023-06-26T06:10:55;1.80;;;1.33;;
29168;SDS011;16219;42.864;23.360;2023-06-26T06:13:24;2.25;;;2.05;;
29168;SDS011;16219;42.864;23.360;2023-06-26T06:15:51;2.35;;;1.92;;
29168;SDS011;16219;42.864;23.360;2023-06-26T06:18:18;4.05;;;2.55;;
29168;SDS011;16219;42.864;23.360;2023-06-26T06:20:45;4.53;;;1.95;;
29168;SDS011;16219;42.864;23.360;2023-06-26T06:23:12;3.75;;;1.95;;
29168;SDS011;16219;42.864;23.360;2023-06-26T06:25:39;2.10;;;1.20;;
29168;SDS011;16219;42.864;23.360;2023-06-26T06:28:06;5.93;;;2.08;;
29168;SDS011;16219;42.864;23.360;2023-06-26T06:30:35;3.70;;;2.22;;
29168;SDS011;16219;42.864;23.360;2023-06-26T06:33:02;4.80;;;2.25;;
29168;SDS011;16219;42.864;23.360;2023-06-26T06:35:29;1.48;;;1.27;;
29168;SDS011;16219;42.864;23.360;2023-06-26T06:37:56;1.35;;;1.08;;
29168;SDS011;16219;42.864;23.360;2023-06-26T06:40:23;2.17;;;1.90;;
29168;SDS011;16219;42.864;23.360;2023-06-26T06:42:51;2.88;;;2.45;;
29168;SDS011;16219;42.864;23.360;2023-06-26T06:45:18;1.67;;;1.50;;
29168;SDS011;16219;42.864;23.360;2023-06-26T06:47:47;1.70;;;1.50;;
29168;SDS011;16219;42.864;23.360;2023-06-26T06:50:14;2.47;;;1.90;;
29168;SDS011;16219;42.864;23.360;2023-06-26T06:52:42;2.53;;;1.85;;
29168;SDS011;16219;42.864;23.360;2023-06-26T06:55:09;1.80;;;1.70;;
29168;SDS011;16219;42.864;23.360;2023-06-26T06:57:37;5.22;;;1.55;;
29168;SDS011;16219;42.864;23.360;2023-06-26T07:00:05;3.15;;;1.67;;
29168;SDS011;16219;42.864;23.360;2023-06-26T07:02:34;1.70;;;1.10;;
29168;SDS011;16219;42.864;23.360;2023-06-26T07:05:03;2.03;;;1.50;;
29168;SDS011;16219;42.864;23.360;2023-06-26T07:07:31;3.20;;;1.42;;
29168;SDS011;16219;42.864;23.360;2023-06-26T07:09:59;6.30;;;2.15;;
29168;SDS011;16219;42.864;23.360;2023-06-26T07:12:26;1.65;;;1.20;;
29168;SDS011;16219;42.864;23.360;2023-06-26T07:14:54;0.77;;;0.77;;
29168;SDS011;16219;42.864;23.360;2023-06-26T07:17:22;2.03;;;1.25;;
29168;SDS011;16219;42.864;23.360;2023-06-26T07:19:49;1.35;;;1.15;;
29168;SDS011;16219;42.864;23.360;2023-06-26T07:22:18;1.67;;;0.82;;
29168;SDS011;16219;42.864;23.360;2023-06-26T07:24:46;3.72;;;1.42;;
29168;SDS011;16219;42.864;23.360;2023-06-26T07:27:14;2.75;;;1.52;;
29168;SDS011;16219;42.864;23.360;2023-06-26T07:29:41;1.63;;;1.52;;
29168;SDS011;16219;42.864;23.360;2023-06-26T07:32:09;4.90;;;1.42;;
29168;SDS011;16219;42.864;23.360;2023-06-26T07:34:36;2.10;;;1.52;;
29168;SDS011;16219;42.864;23.360;2023-06-26T07:37:04;1.40;;;1.00;;
29168;SDS011;16219;42.864;23.360;2023-06-26T07:39:32;1.17;;;0.82;;
29168;SDS011;16219;42.864;23.360;2023-06-26T07:42:00;1.73;;;1.38;;
29168;SDS011;16219;42.864;23.360;2023-06-26T07:44:27;1.67;;;1.25;;
29168;SDS011;16219;42.864;23.360;2023-06-26T07:46:54;1.10;;;1.00;;
29168;SDS011;16219;42.864;23.360;2023-06-26T07:49:21;1.52;;;1.30;;
29168;SDS011;16219;42.864;23.360;2023-06-26T07:51:48;0.82;;;0.60;;
29168;SDS011;16219;42.864;23.360;2023-06-26T07:54:15;0.88;;;0.80;;
29168;SDS011;16219;42.864;23.360;2023-06-26T07:56:54;1.63;;;1.50;;
29168;SDS011;16219;42.864;23.360;2023-06-26T07:59:23;3.28;;;1.23;;
29168;SDS011;16219;42.864;23.360;2023-06-26T08:01:51;0.38;;;0.35;;
29168;SDS011;16219;42.864;23.360;2023-06-26T08:04:19;1.55;;;1.45;;
29168;SDS011;16219;42.864;23.360;2023-06-26T08:06:49;1.98;;;0.80;;
29168;SDS011;16219;42.864;23.360;2023-06-26T08:09:18;2.08;;;1.60;;
29168;SDS011;16219;42.864;23.360;2023-06-26T08:11:46;1.73;;;1.25;;
29168;SDS011;16219;42.864;23.360;2023-06-26T08:14:15;0.73;;;0.70;;
29168;SDS011;16219;42.864;23.360;2023-06-26T08:16:43;0.82;;;0.77;;
29168;SDS011;16219;42.864;23.360;2023-06-26T08:19:11;2.60;;;1.13;;
29168;SDS011;16219;42.864;23.360;2023-06-26T08:21:39;0.70;;;0.70;;
29168;SDS011;16219;42.864;23.360;2023-06-26T08:24:07;0.82;;;0.82;;
29168;SDS011;16219;42.864;23.360;2023-06-26T08:26:34;1.50;;;1.38;;
29168;SDS011;16219;42.864;23.360;2023-06-26T08:29:02;1.23;;;0.63;;
29168;SDS011;16219;42.864;23.360;2023-06-26T08:31:34;0.73;;;0.73;;
29168;SDS011;16219;42.864;23.360;2023-06-26T08:34:02;1.00;;;0.80;;
29168;SDS011;16219;42.864;23.360;2023-06-26T08:36:30;0.70;;;0.70;;
29168;SDS011;16219;42.864;23.360;2023-06-26T08:38:58;0.73;;;0.73;;
29168;SDS011;16219;42.864;23.360;2023-06-26T08:41:25;0.70;;;0.70;;
29168;SDS011;16219;42.864;23.360;2023-06-26T08:43:53;1.10;;;1.02;;
29168;SDS011;16219;42.864;23.360;2023-06-26T08:46:20;0.85;;;0.85;;
29168;SDS011;16219;42.864;23.360;2023-06-26T08:48:52;1.00;;;0.90;;
29168;SDS011;16219;42.864;23.360;2023-06-26T08:51:23;1.75;;;1.00;;
29168;SDS011;16219;42.864;23.360;2023-06-26T08:53:55;1.45;;;0.68;;
29168;SDS011;16219;42.864;23.360;2023-06-26T08:56:25;0.85;;;0.85;;
29168;SDS011;16219;42.864;23.360;2023-06-26T08:58:55;0.75;;;0.75;;
29168;SDS011;16219;42.864;23.360;2023-06-26T09:01:22;1.10;;;0.90;;
29168;SDS011;16219;42.864;23.360;2023-06-26T09:03:52;1.15;;;1.08;;
29168;SDS011;16219;42.864;23.360;2023-06-26T09:06:19;0.82;;;0.82;;
29168;SDS011;16219;42.864;23.360;2023-06-26T09:08:46;1.55;;;0.70;;
29168;SDS011;16219;42.864;23.360;2023-06-26T09:11:13;1.67;;;1.08;;
29168;SDS011;16219;42.864;23.360;2023-06-26T09:13:40;0.70;;;0.50;;
29168;SDS011;16219;42.864;23.360;2023-06-26T09:16:08;1.10;;;1.05;;
29168;SDS011;16219;42.864;23.360;2023-06-26T09:18:36;0.40;;;0.40;;
29168;SDS011;16219;42.864;23.360;2023-06-26T09:21:07;0.70;;;0.70;;
29168;SDS011;16219;42.864;23.360;2023-06-26T09:23:35;1.88;;;0.73;;
29168;SDS011;16219;42.864;23.360;2023-06-26T09:26:03;1.77;;;0.45;;
29168;SDS011;16219;42.864;23.360;2023-06-26T09:28:30;2.20;;;1.33;;
29168;SDS011;16219;42.864;23.360;2023-06-26T09:31:01;0.57;;;0.57;;
29168;SDS011;16219;42.864;23.360;2023-06-26T09:33:32;0.75;;;0.75;;
29168;SDS011;16219;42.864;23.360;2023-06-26T09:36:04;0.67;;;0.63;;
29168;SDS011;16219;42.864;23.360;2023-06-26T09:38:35;0.40;;;0.40;;
29168;SDS011;16219;42.864;23.360;2023-06-26T09:41:02;0.20;;;0.20;;
29168;SDS011;16219;42.864;23.360;2023-06-26T09:43:30;1.50;;;0.43;;
29168;SDS011;16219;42.864;23.360;2023-06-26T09:45:58;0.70;;;0.65;;
29168;SDS011;16219;42.864;23.360;2023-06-26T09:48:25;2.17;;;1.38;;
29168;SDS011;16219;42.864;23.360;2023-06-26T09:50:53;0.80;;;0.75;;
29168;SDS011;16219;42.864;23.360;2023-06-26T09:53:21;1.45;;;1.35;;
29168;SDS011;16219;42.864;23.360;2023-06-26T09:55:49;1.83;;;1.00;;
29168;SDS011;16219;42.864;23.360;2023-06-26T09:58:16;0.90;;;0.90;;
29168;SDS011;16219;42.864;23.360;2023-06-26T10:00:44;1.40;;;1.05;;
29168;SDS011;16219;42.864;23.360;2023-06-26T10:03:12;0.93;;;0.60;;
29168;SDS011;16219;42.864;23.360;2023-06-26T10:05:40;1.63;;;1.13;;
29168;SDS011;16219;42.864;23.360;2023-06-26T10:08:08;1.73;;;1.00;;
29168;SDS011;16219;42.864;23.360;2023-06-26T10:10:40;0.80;;;0.80;;
29168;SDS011;16219;42.864;23.360;2023-06-26T10:13:08;1.80;;;1.52;;
29168;SDS011;16219;42.864;23.360;2023-06-26T10:15:42;2.33;;;1.25;;
29168;SDS011;16219;42.864;23.360;2023-06-26T10:18:11;3.22;;;0.88;;
29168;SDS011;16219;42.864;23.360;2023-06-26T10:20:40;1.88;;;1.25;;
29168;SDS011;16219;42.864;23.360;2023-06-26T10:23:09;2.90;;;1.77;;
29168;SDS011;16219;42.864;23.360;2023-06-26T10:25:37;1.63;;;1.50;;
29168;SDS011;16219;42.864;23.360;2023-06-26T10:28:14;1.85;;;1.40;;
29168;SDS011;16219;42.864;23.360;2023-06-26T10:30:51;5.18;;;1.17;;
29168;SDS011;16219;42.864;23.360;2023-06-26T10:33:20;1.27;;;1.17;;
29168;SDS011;16219;42.864;23.360;2023-06-26T10:35:47;2.00;;;1.35;;
29168;SDS011;16219;42.864;23.360;2023-06-26T10:38:15;1.30;;;1.10;;
29168;SDS011;16219;42.864;23.360;2023-06-26T10:40:45;1.90;;;1.45;;
29168;SDS011;16219;42.864;23.360;2023-06-26T10:43:14;2.17;;;1.52;;
29168;SDS011;16219;42.864;23.360;2023-06-26T10:45:45;1.98;;;1.58;;
29168;SDS011;16219;42.864;23.360;2023-06-26T10:48:17;0.90;;;0.90;;
29168;SDS011;16219;42.864;23.360;2023-06-26T10:50:46;1.45;;;1.20;;
29168;SDS011;16219;42.864;23.360;2023-06-26T10:53:15;1.45;;;1.38;;
29168;SDS011;16219;42.864;23.360;2023-06-26T10:55:55;3.15;;;1.20;;
29168;SDS011;16219;42.864;23.360;2023-06-26T11:01:19;1.10;;;0.85;;
29168;SDS011;16219;42.864;23.360;2023-06-26T11:03:48;1.27;;;1.13;;
29168;SDS011;16219;42.864;23.360;2023-06-26T11:06:27;1.50;;;1.10;;
29168;SDS011;16219;42.864;23.360;2023-06-26T11:08:59;1.48;;;1.27;;
29168;SDS011;16219;42.864;23.360;2023-06-26T11:14:33;3.42;;;1.95;;
29168;SDS011;16219;42.864;23.360;2023-06-26T11:17:02;1.45;;;1.33;;
29168;SDS011;16219;42.864;23.360;2023-06-26T11:19:31;0.90;;;0.90;;
29168;SDS011;16219;42.864;23.360;2023-06-26T11:22:07;1.08;;;1.08;;
29168;SDS011;16219;42.864;23.360;2023-06-26T11:24:34;1.17;;;1.00;;
29168;SDS011;16219;42.864;23.360;2023-06-26T11:27:04;0.50;;;0.50;;
29168;SDS011;16219;42.864;23.360;2023-06-26T11:29:31;2.20;;;1.42;;
29168;SDS011;16219;42.864;23.360;2023-06-26T11:32:02;1.75;;;1.05;;
29168;SDS011;16219;42.864;23.360;2023-06-26T11:34:32;2.43;;;1.33;;
29168;SDS011;16219;42.864;23.360;2023-06-26T11:37:00;1.17;;;1.08;;
29168;SDS011;16219;42.864;23.360;2023-06-26T11:39:28;2.05;;;0.93;;
29168;SDS011;16219;42.864;23.360;2023-06-26T11:41:56;1.35;;;0.40;;
29168;SDS011;16219;42.864;23.360;2023-06-26T11:44:24;1.52;;;1.10;;
29168;SDS011;16219;42.864;23.360;2023-06-26T11:46:56;0.70;;;0.70;;
29168;SDS011;16219;42.864;23.360;2023-06-26T11:49:23;1.02;;;0.93;;
29168;SDS011;16219;42.864;23.360;2023-06-26T11:51:53;1.85;;;1.38;;
29168;SDS011;16219;42.864;23.360;2023-06-26T11:54:23;2.30;;;1.40;;
29168;SDS011;16219;42.864;23.360;2023-06-26T11:56:53;0.90;;;0.80;;
29168;SDS011;16219;42.864;23.360;2023-06-26T11:59:22;0.55;;;0.52;;
29168;SDS011;16219;42.864;23.360;2023-06-26T12:01:51;0.45;;;0.45;;
29168;SDS011;16219;42.864;23.360;2023-06-26T12:04:19;1.05;;;1.00;;
29168;SDS011;16219;42.864;23.360;2023-06-26T12:06:47;1.05;;;0.82;;
29168;SDS011;16219;42.864;23.360;2023-06-26T12:09:17;0.73;;;0.73;;
29168;SDS011;16219;42.864;23.360;2023-06-26T12:11:46;1.77;;;1.10;;
29168;SDS011;16219;42.864;23.360;2023-06-26T12:14:15;0.70;;;0.70;;
29168;SDS011;16219;42.864;23.360;2023-06-26T12:16:44;2.17;;;1.05;;
29168;SDS011;16219;42.864;23.360;2023-06-26T12:19:13;1.02;;;0.93;;
29168;SDS011;16219;42.864;23.360;2023-06-26T12:21:45;1.00;;;1.00;;
29168;SDS011;16219;42.864;23.360;2023-06-26T12:24:18;2.05;;;0.88;;
29168;SDS011;16219;42.864;23.360;2023-06-26T12:26:48;1.25;;;1.15;;
29168;SDS011;16219;42.864;23.360;2023-06-26T12:29:19;0.70;;;0.70;;
29168;SDS011;16219;42.864;23.360;2023-06-26T12:31:51;3.13;;;1.10;;
29168;SDS011;16219;42.864;23.360;2023-06-26T12:34:23;0.80;;;0.75;;
29168;SDS011;16219;42.864;23.360;2023-06-26T12:36:58;0.95;;;0.95;;
29168;SDS011;16219;42.864;23.360;2023-06-26T12:39:27;0.52;;;0.50;;
29168;SDS011;16219;42.864;23.360;2023-06-26T12:41:54;0.80;;;0.60;;
29168;SDS011;16219;42.864;23.360;2023-06-26T12:44:27;0.55;;;0.55;;
29168;SDS011;16219;42.864;23.360;2023-06-26T12:46:55;0.75;;;0.70;;
29168;SDS011;16219;42.864;23.360;2023-06-26T12:49:32;1.05;;;0.98;;
29168;SDS011;16219;42.864;23.360;2023-06-26T12:52:02;2.05;;;1.33;;
29168;SDS011;16219;42.864;23.360;2023-06-26T12:54:31;0.47;;;0.47;;
29168;SDS011;16219;42.864;23.360;2023-06-26T12:56:59;6.07;;;1.75;;
29168;SDS011;16219;42.864;23.360;2023-06-26T12:59:26;0.40;;;0.40;;
29168;SDS011;16219;42.864;23.360;2023-06-26T13:01:53;1.58;;;1.08;;
29168;SDS011;16219;42.864;23.360;2023-06-26T13:04:21;0.47;;;0.47;;
29168;SDS011;16219;42.864;23.360;2023-06-26T13:06:49;0.40;;;0.40;;
29168;SDS011;16219;42.864;23.360;2023-06-26T13:09:17;0.52;;;0.52;;
29168;SDS011;16219;42.864;23.360;2023-06-26T13:11:44;0.73;;;0.73;;
29168;SDS011;16219;42.864;23.360;2023-06-26T13:14:11;2.20;;;0.77;;
29168;SDS011;16219;42.864;23.360;2023-06-26T13:16:39;0.80;;;0.70;;
29168;SDS011;16219;42.864;23.360;2023-06-26T13:19:06;1.45;;;1.23;;
29168;SDS011;16219;42.864;23.360;2023-06-26T13:21:33;0.50;;;0.50;;
29168;SDS011;16219;42.864;23.360;2023-06-26T13:24:02;0.93;;;0.77;;
29168;SDS011;16219;42.864;23.360;2023-06-26T13:26:30;1.42;;;1.25;;
29168;SDS011;16219;42.864;23.360;2023-06-26T13:28:58;5.50;;;0.95;;
29168;SDS011;16219;42.864;23.360;2023-06-26T13:31:26;0.68;;;0.68;;
29168;SDS011;16219;42.864;23.360;2023-06-26T13:33:53;1.30;;;0.50;;
29168;SDS011;16219;42.864;23.360;2023-06-26T13:36:24;0.88;;;0.88;;
29168;SDS011;16219;42.864;23.360;2023-06-26T13:38:52;0.40;;;0.30;;
29168;SDS011;16219;42.864;23.360;2023-06-26T13:41:23;2.05;;;0.80;;
29168;SDS011;16219;42.864;23.360;2023-06-26T13:43:50;0.77;;;0.57;;
29168;SDS011;16219;42.864;23.360;2023-06-26T13:46:18;1.30;;;0.70;;
29168;SDS011;16219;42.864;23.360;2023-06-26T13:48:45;3.92;;;0.75;;
29168;SDS011;16219;42.864;23.360;2023-06-26T13:51:13;1.15;;;0.77;;
29168;SDS011;16219;42.864;23.360;2023-06-26T13:53:40;1.25;;;0.65;;
29168;SDS011;16219;42.864;23.360;2023-06-26T13:56:07;0.73;;;0.55;;
29168;SDS011;16219;42.864;23.360;2023-06-26T13:58:36;0.60;;;0.60;;
29168;SDS011;16219;42.864;23.360;2023-06-26T14:01:03;0.57;;;0.57;;
29168;SDS011;16219;42.864;23.360;2023-06-26T14:03:30;1.58;;;0.95;;
29168;SDS011;16219;42.864;23.360;2023-06-26T14:05:58;0.32;;;0.32;;
29168;SDS011;16219;42.864;23.360;2023-06-26T14:08:25;0.68;;;0.68;;
29168;SDS011;16219;42.864;23.360;2023-06-26T14:10:52;1.25;;;1.05;;
29168;SDS011;16219;42.864;23.360;2023-06-26T14:13:19;0.47;;;0.47;;
29168;SDS011;16219;42.864;23.360;2023-06-26T14:15:48;1.55;;;0.98;;
29168;SDS011;16219;42.864;23.360;2023-06-26T14:18:17;1.05;;;0.70;;
29168;SDS011;16219;42.864;23.360;2023-06-26T14:20:46;0.52;;;0.52;;
29168;SDS011;16219;42.864;23.360;2023-06-26T14:23:13;1.08;;;0.93;;
29168;SDS011;16219;42.864;23.360;2023-06-26T14:25:40;0.98;;;0.57;;
29168;SDS011;16219;42.864;23.360;2023-06-26T14:28:07;0.30;;;0.30;;
29168;SDS011;16219;42.864;23.360;2023-06-26T14:30:34;2.63;;;0.95;;
29168;SDS011;16219;42.864;23.360;2023-06-26T14:33:02;0.77;;;0.57;;
29168;SDS011;16219;42.864;23.360;2023-06-26T14:35:29;1.55;;;0.73;;
29168;SDS011;16219;42.864;23.360;2023-06-26T14:37:56;0.60;;;0.60;;
29168;SDS011;16219;42.864;23.360;2023-06-26T14:40:24;0.77;;;0.77;;
29168;SDS011;16219;42.864;23.360;2023-06-26T14:42:51;0.85;;;0.85;;
29168;SDS011;16219;42.864;23.360;2023-06-26T14:45:18;11.50;;;1.30;;
29168;SDS011;16219;42.864;23.360;2023-06-26T14:47:45;1.08;;;0.55;;